createdAt,value
2023-02-01T00:00:37.813Z,3.00
2023-02-01T00:03:07.642Z,2.80
2023-02-01T00:05:35.408Z,3.33
2023-02-01T00:08:03.462Z,2.50
2023-02-01T00:10:31.420Z,2.80
2023-02-01T00:12:59.418Z,2.80
2023-02-01T00:15:27.268Z,2.87
2023-02-01T00:17:56.627Z,2.87
2023-02-01T00:20:24.457Z,2.67
2023-02-01T00:22:52.347Z,2.70
2023-02-01T00:25:20.205Z,2.90
2023-02-01T00:27:52.068Z,2.73
2023-02-01T00:30:20.679Z,2.30
2023-02-01T00:32:48.752Z,3.00
2023-02-01T00:35:16.714Z,2.23
2023-02-01T00:37:44.643Z,2.77
2023-02-01T00:40:12.972Z,2.43
2023-02-01T00:42:40.697Z,2.80
2023-02-01T00:45:09.022Z,2.70
2023-02-01T00:47:36.805Z,2.40
2023-02-01T00:50:04.727Z,2.43
2023-02-01T00:52:32.557Z,2.40
2023-02-01T00:55:00.467Z,2.97
2023-02-01T00:57:28.315Z,2.50
2023-02-01T00:59:56.138Z,2.40
2023-02-01T01:02:23.896Z,2.60
2023-02-01T01:04:51.828Z,2.73
2023-02-01T01:07:19.745Z,2.73
2023-02-01T01:09:47.601Z,3.00
2023-02-01T01:12:15.461Z,3.20
2023-02-01T01:14:43.399Z,2.63
2023-02-01T01:17:11.377Z,2.70
2023-02-01T01:19:39.360Z,2.37
2023-02-01T01:22:07.154Z,2.80
2023-02-01T01:24:34.932Z,2.50
2023-02-01T01:27:02.758Z,2.70
2023-02-01T01:29:30.581Z,2.80
2023-02-01T01:31:58.388Z,2.80
2023-02-01T01:34:26.176Z,3.00
2023-02-01T01:36:53.991Z,2.70
2023-02-01T01:39:21.786Z,2.43
2023-02-01T01:41:49.542Z,2.50
2023-02-01T01:44:54.620Z,2.97
2023-02-01T01:47:22.403Z,3.00
2023-02-01T01:49:50.185Z,3.37
2023-02-01T01:52:17.941Z,3.00
2023-02-01T01:54:50.061Z,3.10
2023-02-01T01:57:23.843Z,2.70
2023-02-01T01:59:55.562Z,2.70
2023-02-01T02:02:23.439Z,3.27
2023-02-01T02:04:51.204Z,3.30
2023-02-01T02:07:22.265Z,2.90
2023-02-01T02:09:59.983Z,3.00
2023-02-01T02:12:28.629Z,2.93
2023-02-01T02:14:56.599Z,2.83
2023-02-01T02:17:48.121Z,2.93
2023-02-01T02:20:53.202Z,2.57
2023-02-01T02:23:44.193Z,2.67
2023-02-01T02:26:15.657Z,2.80
2023-02-01T02:29:01.708Z,2.90
2023-02-01T02:31:50.888Z,3.17
2023-02-01T02:34:41.010Z,3.00
2023-02-01T02:37:15.606Z,3.23
2023-02-01T02:40:11.131Z,3.30
2023-02-01T02:43:05.109Z,3.10
2023-02-01T02:46:33.525Z,3.60
2023-02-01T02:49:03.400Z,3.03
2023-02-01T02:52:09.046Z,3.30
2023-02-01T02:54:52.979Z,3.63
2023-02-01T02:57:53.055Z,3.43
2023-02-01T03:00:40.816Z,3.57
2023-02-01T03:03:27.051Z,3.07
2023-02-01T03:05:54.900Z,3.43
2023-02-01T03:08:29.928Z,3.87
2023-02-01T03:11:07.547Z,3.40
2023-02-01T03:13:54.106Z,3.77
2023-02-01T03:16:30.998Z,4.20
2023-02-01T03:19:21.895Z,3.40
2023-02-01T03:24:42.605Z,4.03
2023-02-01T03:27:30.973Z,4.10
2023-02-01T03:30:02.233Z,4.10
2023-02-01T03:32:30.226Z,3.60
2023-02-01T03:34:57.999Z,4.20
2023-02-01T03:37:28.222Z,4.10
2023-02-01T03:40:00.424Z,3.97
2023-02-01T03:42:35.567Z,4.53
2023-02-01T03:45:12.235Z,4.40
2023-02-01T03:47:45.003Z,3.60
2023-02-01T03:50:15.081Z,4.03
2023-02-01T03:52:45.118Z,3.90
2023-02-01T03:55:14.641Z,4.40
2023-02-01T03:57:46.496Z,4.23
2023-02-01T04:00:20.504Z,4.30
2023-02-01T04:02:48.702Z,4.23
2023-02-01T04:05:16.635Z,3.97
2023-02-01T04:07:44.467Z,4.93
2023-02-01T04:10:12.701Z,4.07
2023-02-01T04:12:41.379Z,4.10
2023-02-01T04:15:09.793Z,4.47
2023-02-01T04:20:18.425Z,4.23
2023-02-01T04:22:46.143Z,4.33
2023-02-01T04:25:14.011Z,4.60
2023-02-01T04:30:11.775Z,4.00
2023-02-01T04:32:40.026Z,3.67
2023-02-01T04:35:08.267Z,3.83
2023-02-01T04:37:36.417Z,4.23
2023-02-01T04:40:05.825Z,4.13
2023-02-01T04:42:33.666Z,3.90
2023-02-01T04:45:01.494Z,3.87
2023-02-01T04:47:29.301Z,3.93
2023-02-01T04:49:57.064Z,4.23
2023-02-01T04:52:24.894Z,4.20
2023-02-01T04:54:52.673Z,4.10
2023-02-01T04:57:20.456Z,4.20
2023-02-01T04:59:48.207Z,3.93
2023-02-01T05:02:15.925Z,4.40
2023-02-01T05:04:43.761Z,4.20
2023-02-01T05:07:11.654Z,4.57
2023-02-01T05:09:39.486Z,3.80
2023-02-01T05:12:25.802Z,4.00
2023-02-01T05:14:53.676Z,4.17
2023-02-01T05:17:21.471Z,4.27
2023-02-01T05:19:49.426Z,4.43
2023-02-01T05:22:17.181Z,4.50
2023-02-01T05:24:45.006Z,4.50
2023-02-01T05:27:12.781Z,3.23
2023-02-01T05:29:40.617Z,3.87
2023-02-01T05:32:21.027Z,4.40
2023-02-01T05:34:50.221Z,3.77
2023-02-01T05:37:17.957Z,3.93
2023-02-01T05:39:45.795Z,4.20
2023-02-01T05:42:13.576Z,3.80
2023-02-01T05:44:41.361Z,4.60
2023-02-01T05:47:09.250Z,4.33
2023-02-01T05:49:37.061Z,4.00
2023-02-01T05:52:04.915Z,4.03
2023-02-01T05:54:32.718Z,4.10
2023-02-01T05:57:00.506Z,4.00
2023-02-01T05:59:28.291Z,3.50
2023-02-01T06:01:56.132Z,4.40
2023-02-01T06:04:24.028Z,3.10
2023-02-01T06:06:52.797Z,4.03
2023-02-01T06:09:20.636Z,4.03
2023-02-01T06:11:48.435Z,4.13
2023-02-01T06:14:16.320Z,4.03
2023-02-01T06:16:44.257Z,3.63
2023-02-01T06:19:12.065Z,3.73
2023-02-01T06:21:39.836Z,3.40
2023-02-01T06:24:08.323Z,4.10
2023-02-01T06:26:36.143Z,4.10
2023-02-01T06:29:03.991Z,3.87
2023-02-01T06:31:37.908Z,3.60
2023-02-01T06:34:06.133Z,3.73
2023-02-01T06:36:34.211Z,3.77
2023-02-01T06:39:02.125Z,3.80
2023-02-01T06:41:30.092Z,3.90
2023-02-01T06:43:58.072Z,3.60
2023-02-01T06:46:25.947Z,3.97
2023-02-01T06:48:54.011Z,4.40
2023-02-01T06:51:26.801Z,3.73
2023-02-01T06:53:54.768Z,4.27
2023-02-01T06:56:22.819Z,3.57
2023-02-01T06:58:50.675Z,4.00
2023-02-01T07:01:18.891Z,4.23
2023-02-01T07:03:50.281Z,4.53
2023-02-01T07:06:18.249Z,3.93
2023-02-01T07:09:02.962Z,3.67
2023-02-01T07:11:36.808Z,3.77
2023-02-01T07:14:09.402Z,3.17
2023-02-01T07:16:37.382Z,3.73
2023-02-01T07:19:05.283Z,3.43
2023-02-01T07:21:33.152Z,4.00
2023-02-01T07:24:01.095Z,3.63
2023-02-01T07:26:28.862Z,4.40
2023-02-01T07:28:56.859Z,4.00
2023-02-01T07:31:24.906Z,3.30
2023-02-01T07:33:54.025Z,4.37
2023-02-01T07:36:22.207Z,4.47
2023-02-01T07:38:50.148Z,3.97
2023-02-01T07:41:19.765Z,4.00
2023-02-01T07:43:48.267Z,4.03
2023-02-01T07:46:17.473Z,4.70
2023-02-01T07:48:45.320Z,3.80
2023-02-01T07:51:15.832Z,3.67
2023-02-01T07:53:43.625Z,3.67
2023-02-01T07:56:19.297Z,4.57
2023-02-01T07:58:54.636Z,4.87
2023-02-01T08:01:26.566Z,4.80
2023-02-01T08:04:01.729Z,4.67
2023-02-01T08:06:31.278Z,5.13
2023-02-01T08:08:59.568Z,4.73
2023-02-01T08:11:27.711Z,5.27
2023-02-01T08:13:56.004Z,4.27
2023-02-01T08:16:24.370Z,4.83
2023-02-01T08:18:52.378Z,4.60
2023-02-01T08:21:25.400Z,5.10
2023-02-01T08:23:53.679Z,4.90
2023-02-01T08:26:28.062Z,5.00
2023-02-01T08:29:00.753Z,5.60
2023-02-01T08:31:29.819Z,5.63
2023-02-01T08:34:02.303Z,5.17
2023-02-01T08:36:31.334Z,5.90
2023-02-01T08:38:59.255Z,6.10
2023-02-01T08:41:28.699Z,6.30
2023-02-01T08:43:56.840Z,6.00
2023-02-01T08:46:25.165Z,6.10
2023-02-01T08:48:53.340Z,5.90
2023-02-01T08:51:22.174Z,5.27
2023-02-01T08:53:50.140Z,5.60
2023-02-01T08:56:18.341Z,5.47
2023-02-01T08:58:46.439Z,5.33
2023-02-01T09:01:16.052Z,5.97
2023-02-01T09:03:44.052Z,5.67
2023-02-01T09:06:15.797Z,5.40
2023-02-01T09:08:43.862Z,5.97
2023-02-01T09:11:17.200Z,5.43
2023-02-01T09:13:45.288Z,5.37
2023-02-01T09:16:13.478Z,5.20
2023-02-01T09:18:50.573Z,5.20
2023-02-01T09:21:24.175Z,6.77
2023-02-01T09:23:53.392Z,5.13
2023-02-01T09:26:26.541Z,5.20
2023-02-01T09:28:58.289Z,4.97
2023-02-01T09:31:26.338Z,5.77
2023-02-01T09:33:54.210Z,5.50
2023-02-01T09:36:22.096Z,4.90
2023-02-01T09:38:53.415Z,5.27
2023-02-01T09:41:33.534Z,5.00
2023-02-01T09:44:43.767Z,5.00
2023-02-01T09:47:23.851Z,5.03
2023-02-01T09:50:23.285Z,4.63
2023-02-01T09:52:56.376Z,4.57
2023-02-01T09:55:53.121Z,5.00
2023-02-01T09:58:35.417Z,4.57
2023-02-01T10:01:04.485Z,4.70
2023-02-01T10:03:34.262Z,5.33
2023-02-01T10:06:16.132Z,4.83
2023-02-01T10:09:25.948Z,4.73
2023-02-01T10:12:00.718Z,4.67
2023-02-01T10:14:47.229Z,5.00
2023-02-01T10:17:39.464Z,4.97
2023-02-01T10:20:31.779Z,4.67
2023-02-01T10:23:32.554Z,4.27
2023-02-01T10:25:58.525Z,4.33
2023-02-01T10:28:27.264Z,3.80
2023-02-01T10:30:57.325Z,3.87
2023-02-01T10:33:57.433Z,3.80
2023-02-01T10:36:37.235Z,4.50
2023-02-01T10:39:06.305Z,3.90
2023-02-01T10:41:36.270Z,3.80
2023-02-01T10:44:06.676Z,3.50
2023-02-01T10:46:35.515Z,3.80
2023-02-01T10:49:05.447Z,3.40
2023-02-01T10:51:48.141Z,3.70
2023-02-01T10:54:22.508Z,3.40
2023-02-01T10:56:51.321Z,2.57
2023-02-01T10:59:21.410Z,2.87
2023-02-01T11:01:52.208Z,3.30
2023-02-01T11:04:22.184Z,2.90
2023-02-01T11:07:09.636Z,3.20
2023-02-01T11:09:40.911Z,2.73
2023-02-01T11:12:23.579Z,3.10
2023-02-01T11:14:51.278Z,2.97
2023-02-01T11:17:40.988Z,2.77
2023-02-01T11:20:17.612Z,3.00
2023-02-01T11:22:56.401Z,2.47
2023-02-01T11:25:24.630Z,2.80
2023-02-01T11:27:56.067Z,3.03
2023-02-01T11:30:42.015Z,2.53
2023-02-01T11:33:11.293Z,2.47
2023-02-01T11:35:43.440Z,3.00
2023-02-01T11:38:32.211Z,2.00
2023-02-01T11:41:14.295Z,2.47
2023-02-01T11:44:02.557Z,2.50
2023-02-01T11:46:35.109Z,2.30
2023-02-01T11:49:21.727Z,2.10
2023-02-01T11:52:04.909Z,1.97
2023-02-01T11:54:52.075Z,3.07
2023-02-01T11:57:46.218Z,2.47
2023-02-01T12:00:29.259Z,2.00
2023-02-01T12:03:12.004Z,2.33
2023-02-01T12:06:01.608Z,2.10
2023-02-01T12:09:00.871Z,2.43
2023-02-01T12:11:53.554Z,2.40
2023-02-01T12:14:30.569Z,1.90
2023-02-01T12:17:07.419Z,1.90
2023-02-01T12:19:48.174Z,4.93
2023-02-01T12:22:30.459Z,1.93
2023-02-01T12:25:16.984Z,2.03
2023-02-01T12:27:48.499Z,2.10
2023-02-01T12:30:35.312Z,2.03
2023-02-01T12:33:08.848Z,2.13
2023-02-01T12:36:06.001Z,2.57
2023-02-01T12:38:42.850Z,2.33
2023-02-01T12:41:29.644Z,1.80
2023-02-01T12:44:01.124Z,1.87
2023-02-01T12:46:56.254Z,1.60
2023-02-01T12:49:42.387Z,1.93
2023-02-01T12:52:15.184Z,2.17
2023-02-01T12:54:48.116Z,2.07
2023-02-01T12:57:40.118Z,2.17
2023-02-01T13:00:35.250Z,2.50
2023-02-01T13:03:37.186Z,2.27
2023-02-01T13:06:14.956Z,3.50
2023-02-01T13:08:53.742Z,2.03
2023-02-01T13:11:42.701Z,2.13
2023-02-01T13:14:24.037Z,2.20
2023-02-01T13:16:54.472Z,2.40
2023-02-01T13:19:49.065Z,1.97
2023-02-01T13:22:25.829Z,2.60
2023-02-01T13:24:57.366Z,2.50
2023-02-01T13:27:26.036Z,2.10
2023-02-01T13:30:06.801Z,2.07
2023-02-01T13:33:52.224Z,1.93
2023-02-01T13:36:32.671Z,2.40
2023-02-01T13:39:27.124Z,2.00
2023-02-01T13:41:54.789Z,1.73
2023-02-01T13:44:35.030Z,1.50
2023-02-01T13:47:04.406Z,1.53
2023-02-01T13:49:41.855Z,1.40
2023-02-01T13:52:27.375Z,1.03
2023-02-01T13:55:24.655Z,1.30
2023-02-01T13:57:54.677Z,1.23
2023-02-01T14:00:37.293Z,1.20
2023-02-01T14:03:08.033Z,1.20
2023-02-01T14:05:36.509Z,1.30
2023-02-01T14:08:11.759Z,1.40
2023-02-01T14:10:54.710Z,1.13
2023-02-01T14:13:37.121Z,1.53
2023-02-01T14:16:05.023Z,1.47
2023-02-01T14:18:35.641Z,1.77
2023-02-01T14:21:24.699Z,1.60
2023-02-01T14:23:55.449Z,1.33
2023-02-01T14:26:49.131Z,1.60
2023-02-01T14:29:39.199Z,1.37
2023-02-01T14:32:18.891Z,1.20
2023-02-01T14:34:49.832Z,1.53
2023-02-01T14:37:24.107Z,1.43
2023-02-01T14:39:56.102Z,1.40
2023-02-01T14:42:44.165Z,1.30
2023-02-01T14:45:21.252Z,1.47
2023-02-01T14:47:52.487Z,1.30
2023-02-01T14:50:35.702Z,1.47
2023-02-01T14:53:12.698Z,2.13
2023-02-01T14:56:08.858Z,1.70
2023-02-01T14:59:18.982Z,1.83
2023-02-01T15:01:52.668Z,1.40
2023-02-01T15:04:21.058Z,1.40
2023-02-01T15:06:50.984Z,1.73
2023-02-01T15:09:32.585Z,2.10
2023-02-01T15:12:17.832Z,1.50
2023-02-01T15:14:51.503Z,1.37
2023-02-01T15:17:35.763Z,1.27
2023-02-01T15:20:19.058Z,2.03
2023-02-01T15:23:10.063Z,1.50
2023-02-01T15:25:40.318Z,1.40
2023-02-01T15:28:11.367Z,5.90
2023-02-01T15:30:39.256Z,1.80
2023-02-01T15:33:18.961Z,1.80
2023-02-01T15:35:48.360Z,1.73
2023-02-01T15:38:23.293Z,1.97
2023-02-01T15:41:10.498Z,2.50
2023-02-01T15:43:39.386Z,1.60
2023-02-01T15:46:12.766Z,1.50
2023-02-01T15:48:52.431Z,1.77
2023-02-01T15:51:22.385Z,1.60
2023-02-01T15:53:57.322Z,1.83
2023-02-01T15:56:27.094Z,1.50
2023-02-01T15:58:57.367Z,1.50
2023-02-01T16:01:25.267Z,1.77
2023-02-01T16:04:05.733Z,1.90
2023-02-01T16:06:36.285Z,1.33
2023-02-01T16:09:12.454Z,1.77
2023-02-01T16:11:58.425Z,2.20
2023-02-01T16:14:27.161Z,2.07
2023-02-01T16:16:57.436Z,2.40
2023-02-01T16:19:29.932Z,1.97
2023-02-01T16:21:58.110Z,1.87
2023-02-01T16:24:28.930Z,1.63
2023-02-01T16:26:56.887Z,1.27
2023-02-01T16:29:25.010Z,2.03
2023-02-01T16:31:52.953Z,1.80
2023-02-01T16:34:20.717Z,2.20
2023-02-01T16:36:57.676Z,1.63
2023-02-01T16:39:25.828Z,2.07
2023-02-01T16:41:53.856Z,1.60
2023-02-01T16:44:21.629Z,2.20
2023-02-01T16:46:49.653Z,2.40
2023-02-01T16:49:25.421Z,2.20
2023-02-01T16:51:57.326Z,2.23
2023-02-01T16:54:25.242Z,1.87
2023-02-01T16:56:53.071Z,2.20
2023-02-01T16:59:20.839Z,1.90
2023-02-01T17:01:48.763Z,1.70
2023-02-01T17:04:18.530Z,1.60
2023-02-01T17:06:49.517Z,2.17
2023-02-01T17:09:17.318Z,1.60
2023-02-01T17:11:45.180Z,2.07
2023-02-01T17:14:15.822Z,1.83
2023-02-01T17:16:44.344Z,1.50
2023-02-01T17:19:16.257Z,1.63
2023-02-01T17:21:46.655Z,2.00
2023-02-01T17:24:16.363Z,1.80
2023-02-01T17:26:44.689Z,1.80
2023-02-01T17:29:13.034Z,1.40
2023-02-01T17:31:42.480Z,1.60
2023-02-01T17:34:14.001Z,2.23
2023-02-01T17:36:41.775Z,1.60
2023-02-01T17:39:10.733Z,1.60
2023-02-01T17:41:38.849Z,1.80
2023-02-01T17:44:06.804Z,2.07
2023-02-01T17:46:34.753Z,2.07
2023-02-01T17:49:06.865Z,2.20
2023-02-01T17:51:42.789Z,2.57
2023-02-01T17:54:15.061Z,1.87
2023-02-01T17:56:42.850Z,1.60
2023-02-01T17:59:10.723Z,1.60
2023-02-01T18:01:39.259Z,1.53
2023-02-01T18:04:07.044Z,1.40
2023-02-01T18:06:37.664Z,1.30
2023-02-01T18:09:06.343Z,1.40
2023-02-01T18:11:34.766Z,1.57
2023-02-01T18:14:02.703Z,1.90
2023-02-01T18:16:34.917Z,1.80
2023-02-01T18:19:06.320Z,1.57
2023-02-01T18:21:39.047Z,2.47
2023-02-01T18:24:07.199Z,1.67
2023-02-01T18:26:35.467Z,1.30
2023-02-01T18:29:03.412Z,1.47
2023-02-01T18:31:32.803Z,1.50
2023-02-01T18:34:01.316Z,1.80
2023-02-01T18:36:31.643Z,1.77
2023-02-01T18:38:59.551Z,1.93
2023-02-01T18:41:27.670Z,1.80
2023-02-01T18:43:55.701Z,1.50
2023-02-01T18:46:24.023Z,2.63
2023-02-01T18:48:51.842Z,1.77
2023-02-01T18:51:24.636Z,2.30
2023-02-01T18:53:52.731Z,1.60
2023-02-01T18:56:20.519Z,1.90
2023-02-01T18:58:48.445Z,1.53
2023-02-01T19:01:18.350Z,1.53
2023-02-01T19:03:49.200Z,1.90
2023-02-01T19:06:25.153Z,1.87
2023-02-01T19:08:55.402Z,2.00
2023-02-01T19:11:23.302Z,1.73
2023-02-01T19:13:51.859Z,1.77
2023-02-01T19:16:19.660Z,2.30
2023-02-01T19:18:53.666Z,2.73
2023-02-01T19:21:21.575Z,2.20
2023-02-01T19:23:49.600Z,1.97
2023-02-01T19:26:18.365Z,19.67
2023-02-01T19:28:48.977Z,3.03
2023-02-01T19:31:17.286Z,1.80
2023-02-01T19:33:45.140Z,1.80
2023-02-01T19:36:13.686Z,1.40
2023-02-01T19:38:41.639Z,1.57
2023-02-01T19:41:09.554Z,1.63
2023-02-01T19:43:38.151Z,1.50
2023-02-01T19:46:06.282Z,1.60
2023-02-01T19:48:35.515Z,1.93
2023-02-01T19:51:05.336Z,1.73
2023-02-01T19:53:33.228Z,1.23
2023-02-01T19:56:03.049Z,1.43
2023-02-01T19:58:30.979Z,1.40
2023-02-01T20:00:58.389Z,2.30
2023-02-01T20:03:26.326Z,1.43
2023-02-01T20:05:54.865Z,1.70
2023-02-01T20:08:25.648Z,1.77
2023-02-01T20:10:53.502Z,1.30
2023-02-01T20:13:21.630Z,1.47
2023-02-01T20:15:49.529Z,2.23
2023-02-01T20:18:17.351Z,1.50
2023-02-01T20:20:45.217Z,1.50
2023-02-01T20:23:13.088Z,1.40
2023-02-01T20:25:42.567Z,1.97
2023-02-01T20:28:10.851Z,2.43
2023-02-01T20:30:38.808Z,1.67
2023-02-01T20:33:06.766Z,3.10
2023-02-01T20:35:34.668Z,1.77
2023-02-01T20:38:03.343Z,2.03
2023-02-01T20:40:32.557Z,1.60
2023-02-01T20:43:00.486Z,2.53
2023-02-01T20:45:28.335Z,1.53
2023-02-01T20:47:56.299Z,6.20
2023-02-01T20:50:24.234Z,1.73
2023-02-01T20:52:52.236Z,1.67
2023-02-01T20:55:20.149Z,1.53
2023-02-01T20:57:48.409Z,1.77
2023-02-01T21:00:16.681Z,1.50
2023-02-01T21:02:44.707Z,1.40
2023-02-01T21:05:12.804Z,1.70
2023-02-01T21:07:40.755Z,1.97
2023-02-01T21:10:09.327Z,1.60
2023-02-01T21:12:37.158Z,1.60
2023-02-01T21:15:06.438Z,1.30
2023-02-01T21:17:34.594Z,1.50
2023-02-01T21:20:02.470Z,1.77
2023-02-01T21:22:30.338Z,1.43
2023-02-01T21:24:58.138Z,1.30
2023-02-01T21:27:26.097Z,1.20
2023-02-01T21:29:53.883Z,1.30
2023-02-01T21:32:21.981Z,2.67
2023-02-01T21:34:49.921Z,1.70
2023-02-01T21:37:17.761Z,1.10
2023-02-01T21:39:45.802Z,1.93
2023-02-01T21:42:17.811Z,1.37
2023-02-01T21:44:49.600Z,1.60
2023-02-01T21:47:26.018Z,1.20
2023-02-01T21:49:54.285Z,1.20
2023-02-01T21:52:23.152Z,1.30
2023-02-01T21:54:53.169Z,1.30
2023-02-01T21:57:20.935Z,0.90
2023-02-01T21:59:48.794Z,1.40
2023-02-01T22:02:17.591Z,1.53
2023-02-01T22:04:46.001Z,1.93
2023-02-01T22:07:13.819Z,1.30
2023-02-01T22:09:41.824Z,1.67
2023-02-01T22:12:13.723Z,1.30
2023-02-01T22:14:41.975Z,1.37
2023-02-01T22:17:09.897Z,1.40
2023-02-01T22:19:37.757Z,1.50
2023-02-01T22:22:05.653Z,1.50
2023-02-01T22:24:33.466Z,1.60
2023-02-01T22:27:14.180Z,1.13
2023-02-01T22:29:43.722Z,1.67
2023-02-01T22:32:13.360Z,1.17
2023-02-01T22:34:45.725Z,1.37
2023-02-01T22:37:13.786Z,1.30
2023-02-01T22:39:42.228Z,1.33
2023-02-01T22:42:10.136Z,1.00
2023-02-01T22:44:38.546Z,12.17
2023-02-01T22:47:07.103Z,2.10
2023-02-01T22:49:35.184Z,1.60
2023-02-01T22:52:03.130Z,2.33
2023-02-01T22:54:30.914Z,1.60
2023-02-01T22:56:58.890Z,1.87
2023-02-01T22:59:26.657Z,1.37
2023-02-01T23:01:54.520Z,2.23
2023-02-01T23:04:22.641Z,2.10
2023-02-01T23:06:52.209Z,1.60
2023-02-01T23:09:21.923Z,2.00
2023-02-01T23:11:49.904Z,1.17
2023-02-01T23:14:17.939Z,1.90
2023-02-01T23:16:46.170Z,1.87
2023-02-01T23:19:14.150Z,1.53
2023-02-01T23:21:42.929Z,1.33
2023-02-01T23:24:12.011Z,2.37
2023-02-01T23:26:40.250Z,1.90
2023-02-01T23:29:08.249Z,2.87
2023-02-01T23:31:36.342Z,1.03
2023-02-01T23:34:04.585Z,1.30
2023-02-01T23:36:34.002Z,1.47
2023-02-01T23:39:02.043Z,1.30
2023-02-01T23:41:31.188Z,1.23
2023-02-01T23:43:59.124Z,1.67
2023-02-01T23:46:37.892Z,1.80
2023-02-01T23:49:08.306Z,1.63
2023-02-01T23:51:36.208Z,2.53
2023-02-01T23:54:04.130Z,1.50
2023-02-01T23:56:37.056Z,1.40
2023-02-01T23:59:07.354Z,2.97
